Time;durP1;ratioP1;P1;durP2;ratioP2;P2;SDS_P1;SDS_P2;PMS_P1;PMS_P2;Temp;Humidity;BMP_temperature;BMP_pressure;BME280_temperature;BME280_humidity;BME280_pressure;Samples;Min_cycle;Max_cycle;Signal;HPM_P1;HPM_P2
2023/10/11 00:04:49;;;;;;;5.93;4.70;;;19.60;80.70;;;;;;10494648;28;20039;-59
2023/10/11 00:09:52;;;;;;;5.53;4.25;;;19.60;80.60;;;;;;10494946;28;20046;-59
2023/10/11 00:14:56;;;;;;;5.97;4.53;;;19.60;80.70;;;;;;10494698;28;20468;-59
2023/10/11 00:19:58;;;;;;;5.80;3.97;;;19.60;80.60;;;;;;10494822;28;20107;-59
2023/10/11 00:24:59;;;;;;;5.95;3.90;;;19.60;80.60;;;;;;10493718;28;20055;-59
2023/10/11 00:30:00;;;;;;;6.78;3.97;;;19.60;80.60;;;;;;10494513;28;20028;-59
2023/10/11 00:35:00;;;;;;;4.90;3.30;;;19.50;80.50;;;;;;10492992;28;20029;-58
2023/10/11 00:40:02;;;;;;;4.90;3.10;;;19.50;80.60;;;;;;10493399;28;20085;-58
2023/10/11 00:45:07;;;;;;;4.82;3.60;;;19.50;80.50;;;;;;10493090;28;20023;-59
2023/10/11 00:50:14;;;;;;;4.78;4.00;;;19.50;80.50;;;;;;10493022;28;20372;-59
2023/10/11 00:55:21;;;;;;;11.23;3.97;;;19.50;80.50;;;;;;10493152;28;20036;-59
2023/10/11 01:00:23;;;;;;;6.00;3.95;;;19.50;80.50;;;;;;10482940;28;20032;-59
2023/10/11 01:05:24;;;;;;;5.03;4.13;;;19.50;80.50;;;;;;10492467;28;20499;-58
2023/10/11 01:10:29;;;;;;;5.53;4.00;;;19.50;81.00;;;;;;10492558;28;20028;-59
2023/10/11 01:15:30;;;;;;;5.68;3.90;;;19.50;80.50;;;;;;10491791;28;20063;-59
2023/10/11 01:20:36;;;;;;;6.18;3.53;;;19.50;80.50;;;;;;10492517;28;20039;-59
2023/10/11 01:25:37;;;;;;;5.38;3.85;;;19.50;80.50;;;;;;10483420;28;20036;-59
2023/10/11 01:30:37;;;;;;;5.22;4.13;;;19.50;80.40;;;;;;10487431;28;20036;-59
2023/10/11 01:35:38;;;;;;;7.18;5.63;;;19.50;80.40;;;;;;10473615;28;20032;-59
2023/10/11 01:40:41;;;;;;;4.93;4.15;;;19.50;80.40;;;;;;10491776;28;20105;-59
2023/10/11 01:45:42;;;;;;;5.18;3.72;;;19.50;80.40;;;;;;10490484;28;20475;-59
2023/10/11 01:50:43;;;;;;;4.95;4.45;;;19.50;80.50;;;;;;10491567;28;20057;-58
2023/10/11 01:55:44;;;;;;;7.07;4.53;;;19.50;80.30;;;;;;10491336;28;20056;-59
2023/10/11 02:00:45;;;;;;;4.88;3.90;;;19.50;80.30;;;;;;10480794;28;20024;-59
2023/10/11 02:05:45;;;;;;;5.65;3.83;;;19.50;80.80;;;;;;10490748;28;20025;-59
2023/10/11 02:10:46;;;;;;;5.88;3.78;;;19.50;80.30;;;;;;10491868;28;20016;-59
2023/10/11 02:15:48;;;;;;;6.10;4.38;;;19.50;80.30;;;;;;10491055;28;20056;-59
2023/10/11 02:20:49;;;;;;;5.55;3.60;;;19.50;80.30;;;;;;10490914;28;20116;-59
2023/10/11 02:25:49;;;;;;;4.75;3.88;;;19.50;80.30;;;;;;10490169;28;20037;-59
2023/10/11 02:30:50;;;;;;;6.13;4.22;;;19.50;80.30;;;;;;10490899;28;20494;-58
2023/10/11 02:35:55;;;;;;;4.85;3.50;;;19.50;80.30;;;;;;10490185;28;20040;-59
2023/10/11 02:40:56;;;;;;;5.53;4.35;;;19.50;80.20;;;;;;10490555;28;20056;-59
2023/10/11 02:45:59;;;;;;;6.57;3.65;;;19.50;80.20;;;;;;10490862;28;20028;-58
2023/10/11 02:51:13;;;;;;;5.07;4.20;;;19.40;80.20;;;;;;10490518;28;20127;-59
2023/10/11 02:56:15;;;;;;;5.88;4.22;;;19.40;80.10;;;;;;10492642;28;20028;-59
2023/10/11 03:01:31;;;;;;;6.63;4.55;;;19.40;80.20;;;;;;10497363;28;20028;-59
2023/10/11 03:06:35;;;;;;;5.05;3.92;;;19.40;80.20;;;;;;10496871;28;20036;-59
2023/10/11 03:11:45;;;;;;;4.55;4.05;;;19.40;80.20;;;;;;10497073;28;20027;-59
2023/10/11 03:16:55;;;;;;;5.22;3.83;;;19.40;80.20;;;;;;10496649;28;20130;-59
2023/10/11 03:21:56;;;;;;;5.53;3.97;;;19.40;80.10;;;;;;10496480;28;20107;-59
2023/10/11 03:27:00;;;;;;;5.13;3.75;;;19.50;80.20;;;;;;10493569;28;20471;-59
2023/10/11 03:32:01;;;;;;;6.55;3.60;;;19.40;80.20;;;;;;10493064;28;20020;-59
2023/10/11 03:37:08;;;;;;;13.35;8.07;;;19.50;80.20;;;;;;10492269;28;20055;-58
2023/10/11 03:47:14;;;;;;;6.43;4.22;;;19.50;80.20;;;;;;10486189;28;20365;-59
2023/10/11 03:52:30;;;;;;;6.38;4.63;;;19.60;79.90;;;;;;10488661;28;20472;-59
2023/10/11 03:57:36;;;;;;;7.03;4.30;;;19.60;80.10;;;;;;10489776;28;20363;-58
2023/10/11 04:02:37;;;;;;;9.07;5.70;;;19.60;80.10;;;;;;10494594;28;20040;-59
2023/10/11 04:07:40;;;;;;;8.52;4.47;;;19.60;80.00;;;;;;10492206;28;20043;-59
2023/10/11 04:12:42;;;;;;;9.05;4.82;;;19.50;80.00;;;;;;10495048;28;20085;-59
2023/10/11 04:17:48;;;;;;;6.85;4.35;;;19.50;80.10;;;;;;10476592;28;20591;-58
2023/10/11 04:23:01;;;;;;;7.60;5.18;;;19.50;80.10;;;;;;10494390;28;20064;-59
2023/10/11 04:28:02;;;;;;;5.03;3.85;;;19.50;80.10;;;;;;10493860;28;20059;-58
2023/10/11 04:33:10;;;;;;;5.80;4.20;;;19.50;80.20;;;;;;10493882;28;20144;-59
2023/10/11 04:38:11;;;;;;;8.80;4.57;;;19.40;80.10;;;;;;10493282;28;20043;-58
2023/10/11 04:43:20;;;;;;;7.03;4.45;;;19.40;80.20;;;;;;10493794;28;20028;-58
2023/10/11 04:48:30;;;;;;;6.20;5.15;;;19.40;80.20;;;;;;10492518;28;20036;-59
2023/10/11 04:58:54;;;;;;;8.30;4.20;;;19.40;80.00;;;;;;10492841;28;20119;-59
2023/10/11 05:04:00;;;;;;;9.63;4.63;;;19.50;79.90;;;;;;10475386;28;20025;-58
2023/10/11 05:14:29;;;;;;;9.97;4.40;;;19.70;79.80;;;;;;10492629;28;20041;-58
2023/10/11 05:19:35;;;;;;;7.45;4.50;;;19.70;79.50;;;;;;10491820;28;20684;-58
2023/10/11 05:29:52;;;;;;;10.35;4.75;;;19.70;79.30;;;;;;10491391;28;20025;-59
2023/10/11 05:50:54;;;;;;;9.75;5.25;;;19.70;79.70;;;;;;10489460;28;20044;-57
2023/10/11 05:55:56;;;;;;;12.23;5.72;;;19.70;79.90;;;;;;10487870;28;20033;-58
2023/10/11 06:00:56;;;;;;;12.75;5.88;;;19.70;79.70;;;;;;10489771;28;20395;-58
2023/10/11 06:05:59;;;;;;;23.10;7.03;;;19.80;79.70;;;;;;10490749;28;20041;-59
2023/10/11 06:11:00;;;;;;;24.08;6.97;;;19.70;79.40;;;;;;10489911;28;20066;-60
2023/10/11 06:16:01;;;;;;;15.55;6.97;;;19.70;79.50;;;;;;10491014;28;20049;-60
2023/10/11 06:21:05;;;;;;;16.88;7.65;;;19.70;79.60;;;;;;10472969;28;20020;-59
2023/10/11 06:31:33;;;;;;;19.10;7.28;;;19.60;80.00;;;;;;10483602;28;20049;-58
2023/10/11 06:36:35;;;;;;;13.93;5.60;;;19.50;80.00;;;;;;10498264;28;20162;-58
2023/10/11 06:41:45;;;;;;;14.30;6.80;;;19.50;79.80;;;;;;10498096;28;20032;-58
2023/10/11 06:46:48;;;;;;;11.93;5.97;;;19.50;80.00;;;;;;10481636;28;20472;-59
2023/10/11 06:51:51;;;;;;;12.20;6.63;;;19.50;80.00;;;;;;10497036;28;20475;-58
2023/10/11 06:56:51;;;;;;;16.20;7.00;;;19.50;80.00;;;;;;10497923;28;20028;-58
2023/10/11 07:01:52;;;;;;;15.20;7.65;;;19.50;79.80;;;;;;10486855;28;20035;-59
2023/10/11 07:06:53;;;;;;;11.57;6.80;;;19.50;80.00;;;;;;10496814;28;20028;-58
2023/10/11 07:12:28;;;;;;;10.40;6.60;;;19.50;79.80;;;;;;10495603;28;20027;-58
2023/10/11 07:17:15;;;;;;;11.77;6.68;;;19.50;79.90;;;;;;10495888;28;20068;-58
2023/10/11 07:22:18;;;;;;;12.90;5.15;;;19.50;80.00;;;;;;10495519;28;20046;-59
2023/10/11 07:27:26;;;;;;;9.15;6.07;;;19.50;80.00;;;;;;10477601;28;20020;-59
2023/10/11 07:32:27;;;;;;;19.33;7.13;;;19.50;80.00;;;;;;10495121;28;20033;-58
2023/10/11 07:37:28;;;;;;;14.23;6.60;;;19.50;80.00;;;;;;10495426;28;20028;-59
2023/10/11 07:42:36;;;;;;;10.35;6.03;;;19.40;79.80;;;;;;10493174;28;20039;-58
2023/10/11 07:47:37;;;;;;;9.80;6.85;;;19.50;79.90;;;;;;10494909;28;20131;-59
2023/10/11 07:52:40;;;;;;;7.90;5.63;;;19.50;80.10;;;;;;10494407;28;20451;-59
2023/10/11 07:57:47;;;;;;;12.52;6.95;;;19.50;79.90;;;;;;10476423;28;20543;-57
2023/10/11 08:03:02;;;;;;;9.32;6.55;;;19.40;79.80;;;;;;10494211;28;20027;-59
2023/10/11 08:08:05;;;;;;;10.18;6.03;;;19.40;79.80;;;;;;10494179;28;20469;-59
2023/10/11 08:13:14;;;;;;;9.70;6.60;;;19.40;79.70;;;;;;10493418;28;20021;-59
2023/10/11 08:18:16;;;;;;;10.02;6.82;;;19.50;79.80;;;;;;10493596;28;20127;-58
2023/10/11 08:23:28;;;;;;;11.43;7.97;;;19.50;79.70;;;;;;10492182;28;20020;-58
2023/10/11 08:28:29;;;;;;;9.48;6.00;;;19.40;79.60;;;;;;10493369;28;20028;-59
2023/10/11 08:33:30;;;;;;;11.30;7.15;;;19.40;79.70;;;;;;10492520;28;20043;-59
2023/10/11 08:38:32;;;;;;;11.82;7.20;;;19.40;79.70;;;;;;10492405;28;20035;-59
2023/10/11 08:43:36;;;;;;;9.57;7.22;;;19.40;79.70;;;;;;10492359;28;20064;-58
2023/10/11 08:48:40;;;;;;;11.70;7.18;;;19.40;79.70;;;;;;10492792;28;20172;-59
2023/10/11 08:53:46;;;;;;;11.73;7.40;;;19.40;79.60;;;;;;10491752;28;20078;-58
2023/10/11 08:58:51;;;;;;;9.75;6.80;;;19.40;79.70;;;;;;10492031;28;20024;-59
2023/10/11 09:04:11;;;;;;;10.07;6.95;;;19.40;79.70;;;;;;10491515;28;20037;-59
2023/10/11 09:09:41;;;;;;;12.10;7.43;;;19.40;79.80;;;;;;10491241;28;20032;-59
2023/10/11 09:14:53;;;;;;;8.65;6.93;;;19.40;79.80;;;;;;10474562;28;20035;-59
2023/10/11 09:20:15;;;;;;;12.73;8.93;;;19.40;79.80;;;;;;10474605;28;20035;-59
2023/10/11 09:25:22;;;;;;;9.30;7.53;;;19.40;79.80;;;;;;10491224;28;20025;-59
2023/10/11 09:30:27;;;;;;;8.55;7.22;;;19.40;79.80;;;;;;10490961;28;20025;-58
2023/10/11 09:35:28;;;;;;;9.60;8.38;;;19.40;79.70;;;;;;10490988;28;20095;-58
2023/10/11 09:40:33;;;;;;;11.85;9.10;;;19.40;79.70;;;;;;10490144;28;20024;-58
2023/10/11 09:45:44;;;;;;;10.45;8.25;;;19.40;79.70;;;;;;10491006;28;20024;-58
2023/10/11 09:50:45;;;;;;;10.50;8.18;;;19.40;79.70;;;;;;10473602;28;20024;-58
2023/10/11 09:56:00;;;;;;;9.88;7.97;;;19.40;79.70;;;;;;10472499;28;20116;-58
2023/10/11 10:01:12;;;;;;;9.98;8.15;;;19.40;79.80;;;;;;10462786;28;20040;-58
2023/10/11 10:06:21;;;;;;;12.32;8.00;;;19.40;79.80;;;;;;10476274;28;20035;-58
2023/10/11 10:11:22;;;;;;;10.57;8.63;;;19.40;79.80;;;;;;10489338;28;20029;-58
2023/10/11 10:17:15;;;;;;;12.90;9.23;;;19.30;79.70;;;;;;10497500;28;20067;-58
2023/10/11 10:22:23;;;;;;;12.27;8.18;;;19.40;79.90;;;;;;10496252;28;20066;-58
2023/10/11 10:27:23;;;;;;;15.45;12.95;;;19.40;80.00;;;;;;10497551;28;20050;-58
2023/10/11 10:32:24;;;;;;;16.85;12.52;;;19.40;82.70;;;;;;10496670;28;20031;-58
2023/10/11 10:37:47;;;;;;;13.75;9.27;;;19.50;83.40;;;;;;10496485;28;20070;-56
2023/10/11 10:43:14;;;;;;;12.10;8.82;;;19.50;83.50;;;;;;10497020;28;20036;-57
2023/10/11 10:48:24;;;;;;;26.38;12.20;;;19.50;82.30;;;;;;10497534;28;20035;-57
2023/10/11 10:53:42;;;;;;;17.90;8.43;;;19.60;82.00;;;;;;10478667;28;20494;-57
2023/10/11 10:58:44;;;;;;;14.18;10.00;;;19.60;81.80;;;;;;10496693;28;20091;-58
2023/10/11 11:03:44;;;;;;;12.48;9.40;;;19.60;81.90;;;;;;10495330;28;20418;-58
2023/10/11 11:08:46;;;;;;;15.00;11.07;;;19.50;81.70;;;;;;10489168;28;20036;-58
2023/10/11 11:13:49;;;;;;;24.60;10.68;;;19.60;81.40;;;;;;10469419;28;20021;-57
2023/10/11 11:18:49;;;;;;;21.45;9.65;;;19.50;81.20;;;;;;10495017;28;20419;-58
2023/10/11 11:23:51;;;;;;;18.15;9.80;;;19.50;81.90;;;;;;10495611;28;20078;-58
2023/10/11 11:28:53;;;;;;;24.52;10.80;;;19.50;81.40;;;;;;10495443;28;20081;-58
2023/10/11 11:34:13;;;;;;;20.15;9.65;;;19.50;81.30;;;;;;10495195;28;20052;-57
2023/10/11 11:44:39;;;;;;;15.27;9.75;;;19.50;81.30;;;;;;10495108;28;20472;-58
2023/10/11 11:49:40;;;;;;;17.00;10.23;;;19.50;81.40;;;;;;10495186;28;20029;-57
2023/10/11 11:54:43;;;;;;;15.13;9.75;;;19.50;81.20;;;;;;10495407;28;20131;-57
2023/10/11 11:59:44;;;;;;;12.75;8.73;;;19.50;81.20;;;;;;10494541;28;20033;-58
2023/10/11 12:04:44;;;;;;;14.30;9.82;;;19.50;81.10;;;;;;10494150;28;20036;-58
2023/10/11 12:09:45;;;;;;;15.30;9.48;;;19.50;81.20;;;;;;10493674;28;20030;-57
2023/10/11 12:14:46;;;;;;;15.05;8.88;;;19.50;81.20;;;;;;10493529;28;20039;-57
2023/10/11 12:19:53;;;;;;;15.10;9.10;;;19.50;81.40;;;;;;10493506;28;20067;-57
2023/10/11 12:24:58;;;;;;;15.75;8.57;;;19.60;81.20;;;;;;10493272;28;21305;-58
2023/10/11 12:30:00;;;;;;;19.70;9.88;;;19.70;81.40;;;;;;10491708;28;20024;-57
2023/10/11 12:35:05;;;;;;;35.42;12.00;;;19.70;81.40;;;;;;10488783;28;20115;-58
2023/10/11 12:40:14;;;;;;;18.20;10.07;;;19.80;80.90;;;;;;10491740;28;20025;-58
2023/10/11 12:45:17;;;;;;;25.77;12.25;;;19.80;80.90;;;;;;10473869;28;20032;-59
2023/10/11 12:50:20;;;;;;;24.45;15.90;;;19.70;80.90;;;;;;10492335;28;20440;-60
2023/10/11 12:55:21;;;;;;;25.70;18.08;;;19.70;82.70;;;;;;10492077;28;20117;-58
2023/10/11 13:00:31;;;;;;;31.88;17.55;;;19.70;84.10;;;;;;10481359;28;20029;-60
2023/10/11 13:05:32;;;;;;;32.38;18.63;;;19.70;84.80;;;;;;10474835;28;20127;-58
2023/10/11 13:10:35;;;;;;;26.65;13.82;;;19.70;86.20;;;;;;10491199;28;20035;-59
2023/10/11 13:15:39;;;;;;;24.33;14.05;;;19.80;84.50;;;;;;10490357;28;20075;-58
2023/10/11 13:20:41;;;;;;;35.65;13.95;;;19.80;83.30;;;;;;10491520;28;20035;-58
2023/10/11 13:25:44;;;;;;;25.38;14.13;;;19.70;83.00;;;;;;10490686;28;20037;-58
2023/10/11 13:30:47;;;;;;;19.95;11.98;;;19.70;83.10;;;;;;10476451;28;20023;-58
2023/10/11 13:35:49;;;;;;;26.02;11.43;;;19.70;83.20;;;;;;10490372;28;20078;-58
2023/10/11 13:40:52;;;;;;;30.20;12.45;;;19.70;83.20;;;;;;10490566;28;20029;-58
2023/10/11 13:45:56;;;;;;;22.20;12.32;;;19.70;83.20;;;;;;10488932;28;20021;-59
2023/10/11 13:50:57;;;;;;;22.75;11.57;;;19.70;83.20;;;;;;10487875;28;20040;-59
2023/10/11 13:56:10;;;;;;;25.73;11.77;;;19.80;83.20;;;;;;10490485;28;20097;-58
2023/10/11 14:06:35;;;;;;;29.67;13.38;;;19.90;83.20;;;;;;10490275;28;20587;-58
2023/10/11 14:11:38;;;;;;;30.45;12.98;;;19.90;83.10;;;;;;10488879;28;20056;-58
2023/10/11 14:16:41;;;;;;;18.35;10.07;;;19.80;83.10;;;;;;10489929;28;20053;-56
2023/10/11 14:21:47;;;;;;;22.27;11.73;;;19.80;83.80;;;;;;10488931;28;20071;-58
2023/10/11 14:26:47;;;;;;;21.45;10.32;;;19.90;83.40;;;;;;10488429;28;20027;-58
2023/10/11 14:31:48;;;;;;;33.55;12.68;;;19.80;82.70;;;;;;10488563;28;20486;-60
2023/10/11 14:36:50;;;;;;;29.75;11.40;;;19.80;83.10;;;;;;10490246;28;20040;-58
2023/10/11 14:41:51;;;;;;;26.15;13.75;;;20.00;82.80;;;;;;10490226;28;20345;-59
2023/10/11 14:46:52;;;;;;;30.42;11.40;;;20.20;82.80;;;;;;10488436;28;20029;-58
2023/10/11 14:51:55;;;;;;;26.42;12.32;;;20.20;81.90;;;;;;10491465;28;20021;-57
2023/10/11 14:57:00;;;;;;;37.22;16.23;;;20.10;82.10;;;;;;10495897;28;20039;-58
2023/10/11 15:02:05;;;;;;;24.05;12.25;;;20.10;82.30;;;;;;10486557;28;20028;-62
2023/10/11 15:07:06;;;;;;;37.90;14.77;;;20.00;82.80;;;;;;10468883;28;20032;-61
2023/10/11 15:12:07;;;;;;;35.03;14.13;;;19.90;82.80;;;;;;10460017;28;20787;-61
2023/10/11 15:17:11;;;;;;;32.35;14.23;;;19.80;82.80;;;;;;10465715;28;20052;-59
2023/10/11 15:22:13;;;;;;;26.67;12.82;;;19.80;83.00;;;;;;10467828;28;20024;-59
2023/10/11 15:27:14;;;;;;;28.00;12.63;;;19.80;82.90;;;;;;10455583;28;20123;-59
2023/10/11 15:32:15;;;;;;;25.83;13.27;;;19.80;82.80;;;;;;10478258;28;20028;-59
2023/10/11 15:37:16;;;;;;;26.90;12.43;;;19.70;83.00;;;;;;10495373;28;20442;-59
2023/10/11 15:42:18;;;;;;;26.48;11.60;;;19.70;83.20;;;;;;10476975;28;20056;-59
2023/10/11 15:47:19;;;;;;;22.90;12.02;;;19.80;83.10;;;;;;10500126;28;20108;-60
2023/10/11 15:52:20;;;;;;;31.92;11.95;;;19.80;83.20;;;;;;10494952;28;20476;-60
2023/10/11 15:57:22;;;;;;;40.05;17.85;;;19.80;83.30;;;;;;10501377;28;20051;-60
2023/10/11 16:02:23;;;;;;;25.77;14.82;;;19.80;83.20;;;;;;10476005;28;20043;-60
2023/10/11 16:07:25;;;;;;;29.80;16.52;;;19.90;82.90;;;;;;10493211;28;20047;-60
2023/10/11 16:12:26;;;;;;;24.73;14.00;;;19.90;86.60;;;;;;10477304;28;20032;-61
2023/10/11 16:17:27;;;;;;;25.70;14.45;;;20.20;85.30;;;;;;10479212;28;20141;-59
2023/10/11 16:22:30;;;;;;;31.40;14.98;;;20.30;84.60;;;;;;10477424;28;20037;-59
2023/10/11 16:27:34;;;;;;;25.08;13.82;;;20.30;84.70;;;;;;10501350;28;20036;-58
2023/10/11 16:32:35;;;;;;;29.75;14.18;;;20.40;83.80;;;;;;10494381;28;20040;-60
2023/10/11 16:37:37;;;;;;;23.23;14.38;;;20.40;83.70;;;;;;10479596;28;20049;-58
2023/10/11 16:42:38;;;;;;;24.25;13.57;;;20.30;83.40;;;;;;10488050;28;20036;-58
2023/10/11 16:47:41;;;;;;;27.60;15.45;;;20.10;83.60;;;;;;10494985;28;20078;-58
2023/10/11 16:52:42;;;;;;;26.80;13.80;;;20.10;84.00;;;;;;10494828;28;20177;-58
2023/10/11 16:57:43;;;;;;;28.35;13.02;;;20.10;84.10;;;;;;10472259;28;20455;-58
2023/10/11 17:02:44;;;;;;;23.08;13.82;;;20.00;84.20;;;;;;10498323;28;20050;-58
2023/10/11 17:07:46;;;;;;;22.77;12.55;;;20.00;84.20;;;;;;10491490;28;20048;-58
2023/10/11 17:12:46;;;;;;;25.85;12.63;;;20.00;84.50;;;;;;10492666;28;20036;-59
2023/10/11 17:17:48;;;;;;;32.90;14.30;;;20.00;84.30;;;;;;10500944;28;20068;-59
2023/10/11 17:22:51;;;;;;;16.33;13.38;;;19.90;84.20;;;;;;10492194;28;20535;-58
2023/10/11 17:27:57;;;;;;;20.92;12.57;;;19.90;84.20;;;;;;10473255;28;20119;-58
2023/10/11 17:33:03;;;;;;;26.00;13.07;;;19.90;84.20;;;;;;10490965;28;20043;-58
2023/10/11 17:38:08;;;;;;;19.08;12.30;;;19.90;83.80;;;;;;10491502;28;20032;-58
2023/10/11 17:43:09;;;;;;;23.15;12.35;;;19.90;83.90;;;;;;10492003;28;20039;-58
2023/10/11 17:48:13;;;;;;;17.00;12.00;;;19.80;83.80;;;;;;10493037;28;20032;-58
2023/10/11 17:53:14;;;;;;;19.38;10.85;;;19.80;83.70;;;;;;10491523;28;20070;-58
2023/10/11 17:58:14;;;;;;;17.67;10.60;;;19.80;83.70;;;;;;10491601;28;20033;-58
2023/10/11 18:03:16;;;;;;;14.45;10.32;;;19.80;83.80;;;;;;10491483;28;20447;-58
2023/10/11 18:08:17;;;;;;;15.30;10.75;;;19.80;83.60;;;;;;10491016;28;20040;-59
2023/10/11 18:13:19;;;;;;;27.55;12.00;;;19.90;83.40;;;;;;10489051;28;20017;-58
2023/10/11 18:18:20;;;;;;;16.20;10.70;;;19.90;83.50;;;;;;10489603;28;20067;-58
2023/10/11 18:23:21;;;;;;;20.98;11.02;;;19.80;83.60;;;;;;10455006;28;20131;-59
2023/10/11 18:28:22;;;;;;;21.60;12.40;;;19.80;83.70;;;;;;10471368;28;20044;-58
2023/10/11 18:33:23;;;;;;;19.20;10.40;;;19.80;83.70;;;;;;10498088;28;20488;-58
2023/10/11 18:38:24;;;;;;;14.02;10.45;;;19.80;83.60;;;;;;10497365;28;20039;-58
2023/10/11 18:43:24;;;;;;;16.27;9.63;;;19.80;83.80;;;;;;10497154;28;20375;-58
2023/10/11 18:48:25;;;;;;;16.80;9.95;;;19.80;83.80;;;;;;10497728;28;20037;-58
2023/10/11 18:53:26;;;;;;;16.83;10.10;;;19.80;83.80;;;;;;10497134;28;20024;-58
2023/10/11 18:58:27;;;;;;;15.68;10.60;;;19.80;84.30;;;;;;10497716;28;20495;-58
2023/10/11 19:03:31;;;;;;;15.65;11.25;;;19.80;83.60;;;;;;10496193;28;20033;-57
2023/10/11 19:08:32;;;;;;;17.20;10.48;;;19.90;83.80;;;;;;10495859;28;20043;-58
2023/10/11 19:13:32;;;;;;;18.75;11.05;;;19.90;83.40;;;;;;10495794;28;20115;-58
2023/10/11 19:18:33;;;;;;;12.50;8.85;;;19.80;83.70;;;;;;10496288;28;20044;-59
2023/10/11 19:23:34;;;;;;;17.65;9.98;;;20.00;84.00;;;;;;10496800;28;20104;-59
2023/10/11 19:28:35;;;;;;;16.67;11.70;;;20.00;83.50;;;;;;10496494;28;20033;-59
2023/10/11 19:33:36;;;;;;;13.52;10.95;;;20.00;83.20;;;;;;10496772;28;20048;-59
2023/10/11 19:38:37;;;;;;;14.70;9.45;;;19.90;83.40;;;;;;10494982;28;20033;-59
2023/10/11 19:43:37;;;;;;;16.17;10.13;;;19.80;83.50;;;;;;10495427;28;20037;-59
2023/10/11 19:48:41;;;;;;;17.08;10.40;;;19.80;83.60;;;;;;10496050;28;20020;-59
2023/10/11 19:53:42;;;;;;;14.18;10.05;;;19.80;83.50;;;;;;10495965;28;20025;-59
2023/10/11 19:58:45;;;;;;;15.23;10.32;;;19.70;83.50;;;;;;10484466;28;20021;-58
2023/10/11 20:03:54;;;;;;;14.05;10.40;;;19.70;83.50;;;;;;10495435;28;20108;-59
2023/10/11 20:08:54;;;;;;;13.83;9.70;;;19.70;83.40;;;;;;10494754;28;20024;-59
2023/10/11 20:13:55;;;;;;;13.00;10.38;;;19.70;83.40;;;;;;10494851;28;20297;-59
2023/10/11 20:18:57;;;;;;;11.07;9.52;;;19.70;83.30;;;;;;10494372;28;20055;-59
2023/10/11 20:23:58;;;;;;;12.82;10.27;;;19.70;83.30;;;;;;10494845;28;20031;-59
2023/10/11 20:29:00;;;;;;;12.32;9.38;;;19.70;83.40;;;;;;10494448;28;20020;-59
2023/10/11 20:34:00;;;;;;;11.82;9.57;;;19.70;83.30;;;;;;10494360;28;20021;-59
2023/10/11 20:39:08;;;;;;;13.15;9.68;;;19.70;83.30;;;;;;10493839;28;20043;-59
2023/10/11 20:44:11;;;;;;;13.95;9.35;;;19.70;83.30;;;;;;10493506;28;20039;-59
2023/10/11 20:49:12;;;;;;;22.13;9.35;;;19.70;83.20;;;;;;10492583;28;20028;-59
2023/10/11 20:54:13;;;;;;;10.93;8.68;;;19.60;83.20;;;;;;10493387;28;20601;-59
2023/10/11 20:59:15;;;;;;;10.52;8.65;;;19.60;83.20;;;;;;10492967;28;20594;-59
2023/10/11 21:04:16;;;;;;;13.57;9.95;;;19.60;83.10;;;;;;10492953;28;20429;-59
2023/10/11 21:09:20;;;;;;;13.95;9.05;;;19.60;83.10;;;;;;10460856;28;20031;-59
2023/10/11 21:14:21;;;;;;;12.43;9.20;;;19.60;83.10;;;;;;10492684;28;20031;-59
2023/10/11 21:19:21;;;;;;;10.80;8.90;;;19.60;83.10;;;;;;10492102;28;20066;-59
2023/10/11 21:24:22;;;;;;;11.20;9.02;;;19.60;83.00;;;;;;10491996;28;20025;-59
2023/10/11 21:29:23;;;;;;;12.25;9.25;;;19.60;83.00;;;;;;10492319;28;20043;-59
2023/10/11 21:34:23;;;;;;;12.20;8.70;;;19.60;83.00;;;;;;10492049;28;20468;-59
2023/10/11 21:39:25;;;;;;;9.38;7.78;;;19.60;82.90;;;;;;10491794;28;20483;-59
2023/10/11 21:44:27;;;;;;;11.23;8.27;;;19.60;82.90;;;;;;10473908;28;20381;-59
2023/10/11 21:49:27;;;;;;;10.50;8.40;;;19.60;82.90;;;;;;10473396;28;20419;-59
2023/10/11 21:54:28;;;;;;;10.77;8.85;;;19.50;82.80;;;;;;10491733;28;20035;-59
2023/10/11 21:59:29;;;;;;;10.45;7.28;;;19.50;82.80;;;;;;10480724;28;20036;-59
2023/10/11 22:04:30;;;;;;;11.52;8.73;;;19.50;82.70;;;;;;10490760;28;20044;-59
2023/10/11 22:09:31;;;;;;;10.10;8.88;;;19.50;82.70;;;;;;10491239;28;20483;-57
2023/10/11 22:14:31;;;;;;;11.60;8.35;;;19.50;82.60;;;;;;10490850;28;20039;-59
2023/10/11 22:19:36;;;;;;;11.32;8.68;;;19.50;82.60;;;;;;10491102;28;20112;-59
2023/10/11 22:24:38;;;;;;;10.07;8.27;;;19.50;82.60;;;;;;10473098;28;20032;-59
2023/10/11 22:29:40;;;;;;;12.35;8.43;;;19.50;82.50;;;;;;10490916;28;20359;-59
2023/10/11 22:34:43;;;;;;;8.80;7.55;;;19.50;82.50;;;;;;10490862;28;20372;-59
2023/10/11 22:39:44;;;;;;;8.82;7.93;;;19.50;82.50;;;;;;10490986;28;20028;-58
2023/10/11 22:44:47;;;;;;;9.77;7.63;;;19.50;82.50;;;;;;10490835;28;20429;-59
2023/10/11 22:49:48;;;;;;;10.25;7.22;;;19.50;82.50;;;;;;10490625;28;20039;-58
2023/10/11 22:54:49;;;;;;;8.45;7.53;;;19.50;82.50;;;;;;10490211;28;20107;-59
2023/10/11 22:59:49;;;;;;;10.95;7.63;;;19.50;82.40;;;;;;10490295;28;20450;-59
2023/10/11 23:04:54;;;;;;;9.15;8.25;;;19.50;82.50;;;;;;10490295;28;20428;-59
2023/10/11 23:09:55;;;;;;;15.57;8.52;;;19.50;82.40;;;;;;10490125;28;20025;-59
2023/10/11 23:14:58;;;;;;;10.13;8.50;;;19.50;82.40;;;;;;10495225;28;20056;-60
2023/10/11 23:20:08;;;;;;;8.95;7.22;;;19.50;82.30;;;;;;10497227;28;20036;-59
2023/10/11 23:25:09;;;;;;;8.05;6.88;;;19.50;82.30;;;;;;10496964;28;20024;-59
2023/10/11 23:30:11;;;;;;;9.32;8.15;;;19.50;82.30;;;;;;10496779;28;20025;-59
2023/10/11 23:35:17;;;;;;;9.10;7.85;;;19.50;82.30;;;;;;10479057;28;20094;-59
2023/10/11 23:40:27;;;;;;;10.82;8.00;;;19.50;82.30;;;;;;10496456;28;20054;-59
2023/10/11 23:45:32;;;;;;;10.40;7.50;;;19.50;82.20;;;;;;10495913;28;20028;-58
2023/10/11 23:50:35;;;;;;;11.85;8.48;;;19.50;82.10;;;;;;10496215;28;20021;-59
2023/10/11 23:55:40;;;;;;;9.57;7.43;;;19.50;82.20;;;;;;10495948;28;20028;-59
